Greene, North Dakota
Current Conditions -  °F | °C
As of 8:13 AM on Wednesday 26 Nov 2014 (Local Time) from KMIB Reporting Station
Haze Haze  
Wind Chill: -10°   Ceiling: 2900
Heat Index:   Visibility: 6mi
Dew Point:   Wind: 8mph
Humidity: 85%   Direction: 50°NE
Pressure: 30.33"   Gusts: NA
Location:  48.822°N, 101.868°W
Report Text: KMIB 261413Z AUTO 05007KT 6SM BR FEW006 SCT019 OVC029 M16/M18 A3033 RMK AO2 CIG 017V029
Loading
Personal Weather Stations






























Interactive Weather Map New forecast layout! Learn more

10-Day Weather Forecast

Advertisements
Track Severe Weather on mobile